createdAt,value
2022-12-03T00:01:14.468Z,23.10
2022-12-03T00:03:41.424Z,24.73
2022-12-03T00:06:08.437Z,22.97
2022-12-03T00:08:35.281Z,22.93
2022-12-03T00:11:02.083Z,23.23
2022-12-03T00:13:29.341Z,22.40
2022-12-03T00:15:56.134Z,22.07
2022-12-03T00:18:23.636Z,23.30
2022-12-03T00:20:50.608Z,24.33
2022-12-03T00:23:17.382Z,24.53
2022-12-03T00:25:44.201Z,23.50
2022-12-03T00:28:11.048Z,23.03
2022-12-03T00:30:37.975Z,23.00
2022-12-03T00:33:04.818Z,23.53
2022-12-03T00:35:31.650Z,23.50
2022-12-03T00:37:58.455Z,22.60
2022-12-03T00:40:25.261Z,23.00
2022-12-03T00:42:52.136Z,24.03
2022-12-03T00:45:19.010Z,23.43
2022-12-03T00:47:45.820Z,24.73
2022-12-03T00:50:12.625Z,26.23
2022-12-03T00:52:39.473Z,24.13
2022-12-03T00:55:06.780Z,23.57
2022-12-03T00:57:33.666Z,24.03
2022-12-03T01:00:00.447Z,23.83
2022-12-03T01:02:27.325Z,23.80
2022-12-03T01:04:54.376Z,23.97
2022-12-03T01:07:21.485Z,24.57
2022-12-03T01:09:48.304Z,22.40
2022-12-03T01:12:15.176Z,22.83
2022-12-03T01:14:42.021Z,22.53
2022-12-03T01:17:08.841Z,23.73
2022-12-03T01:19:35.881Z,21.80
2022-12-03T01:22:02.863Z,22.67
2022-12-03T01:24:29.692Z,24.83
2022-12-03T01:26:56.902Z,23.63
2022-12-03T01:29:24.236Z,23.40
2022-12-03T01:32:09.713Z,22.03
2022-12-03T01:34:36.567Z,23.53
2022-12-03T01:37:03.570Z,24.30
2022-12-03T01:39:30.427Z,25.27
2022-12-03T01:41:58.810Z,22.67
2022-12-03T01:44:28.408Z,24.03
2022-12-03T01:46:56.666Z,26.63
2022-12-03T01:49:25.711Z,23.33
2022-12-03T01:51:52.825Z,24.30
2022-12-03T01:54:22.417Z,22.83
2022-12-03T01:56:49.381Z,24.10
2022-12-03T01:59:18.435Z,23.73
2022-12-03T02:01:46.010Z,24.67
2022-12-03T02:04:17.410Z,24.63
2022-12-03T02:06:44.911Z,23.40
2022-12-03T02:09:13.240Z,26.77
2022-12-03T02:11:44.228Z,24.90
2022-12-03T02:14:13.528Z,24.60
2022-12-03T02:16:41.793Z,25.03
2022-12-03T02:19:17.011Z,24.43
2022-12-03T02:21:58.751Z,25.93
2022-12-03T02:24:46.205Z,24.57
2022-12-03T02:27:13.167Z,21.50
2022-12-03T02:29:40.033Z,24.00
2022-12-03T02:32:06.850Z,24.37
2022-12-03T02:34:42.366Z,24.60
2022-12-03T02:37:16.458Z,24.90
2022-12-03T02:39:47.281Z,23.67
2022-12-03T02:42:32.776Z,27.03
2022-12-03T02:45:05.364Z,25.83
2022-12-03T02:47:34.937Z,24.20
2022-12-03T02:50:01.861Z,23.40
2022-12-03T02:52:28.706Z,23.63
2022-12-03T02:54:55.915Z,26.63
2022-12-03T02:57:22.876Z,22.53
2022-12-03T02:59:49.708Z,24.10
2022-12-03T03:02:16.791Z,24.33
2022-12-03T03:04:44.349Z,24.27
2022-12-03T03:07:11.392Z,23.70
2022-12-03T03:09:38.319Z,22.20
2022-12-03T03:12:05.434Z,25.13
2022-12-03T03:14:32.953Z,22.10
2022-12-03T03:16:59.756Z,22.27
2022-12-03T03:19:26.765Z,25.03
2022-12-03T03:21:53.853Z,25.00
2022-12-03T03:24:21.593Z,23.73
2022-12-03T03:26:49.220Z,25.40
2022-12-03T03:29:16.203Z,25.33
2022-12-03T03:31:44.200Z,23.37
2022-12-03T03:34:11.451Z,24.83
2022-12-03T03:36:38.680Z,25.07
2022-12-03T03:39:05.978Z,24.30
2022-12-03T03:41:33.634Z,24.57
2022-12-03T03:44:00.612Z,22.20
2022-12-03T03:46:28.462Z,24.90
2022-12-03T03:48:55.312Z,23.57
2022-12-03T03:51:22.180Z,24.47
2022-12-03T03:53:50.031Z,23.00
2022-12-03T03:56:17.840Z,25.93
2022-12-03T03:58:44.689Z,24.80
2022-12-03T04:01:13.114Z,23.93
2022-12-03T04:03:40.309Z,23.03
2022-12-03T04:06:07.477Z,23.30
2022-12-03T04:08:34.389Z,24.33
2022-12-03T04:11:19.904Z,22.53
2022-12-03T04:13:46.734Z,22.10
2022-12-03T04:16:13.559Z,23.30
2022-12-03T04:18:43.332Z,24.60
2022-12-03T04:21:33.987Z,23.87
2022-12-03T04:24:00.941Z,23.50
2022-12-03T04:26:46.555Z,22.00
2022-12-03T04:29:13.628Z,24.03
2022-12-03T04:31:59.130Z,25.33
2022-12-03T04:34:44.951Z,22.77
2022-12-03T04:37:11.800Z,22.97
2022-12-03T04:39:38.611Z,22.73
2022-12-03T04:42:06.101Z,23.53
2022-12-03T04:44:33.814Z,22.70
2022-12-03T04:47:07.161Z,23.00
2022-12-03T04:49:34.645Z,24.17
2022-12-03T04:52:01.612Z,22.50
2022-12-03T04:54:28.821Z,23.53
2022-12-03T04:56:55.794Z,22.37
2022-12-03T04:59:22.700Z,23.67
2022-12-03T05:01:49.612Z,24.83
2022-12-03T05:04:16.473Z,21.83
2022-12-03T05:06:43.567Z,23.77
2022-12-03T05:09:11.138Z,23.57
2022-12-03T05:11:38.392Z,23.50
2022-12-03T05:14:05.325Z,25.10
2022-12-03T05:16:32.393Z,24.70
2022-12-03T05:18:59.242Z,25.10
2022-12-03T05:21:26.211Z,25.53
2022-12-03T05:23:52.985Z,25.60
2022-12-03T05:26:19.815Z,23.63
2022-12-03T05:28:46.760Z,25.07
2022-12-03T05:31:13.682Z,26.00
2022-12-03T05:33:44.206Z,27.20
2022-12-03T05:36:11.520Z,23.93
2022-12-03T05:38:38.725Z,25.43
2022-12-03T05:41:28.808Z,25.17
2022-12-03T05:43:55.903Z,25.40
2022-12-03T05:46:23.619Z,27.30
2022-12-03T05:48:50.481Z,25.70
2022-12-03T05:51:17.248Z,24.77
2022-12-03T05:53:44.120Z,25.87
2022-12-03T05:56:10.950Z,26.07
2022-12-03T05:58:37.837Z,28.13
2022-12-03T06:01:04.651Z,28.10
2022-12-03T06:03:31.691Z,28.77
2022-12-03T06:05:58.514Z,27.47
2022-12-03T06:08:25.365Z,27.17
2022-12-03T06:10:52.256Z,27.97
2022-12-03T06:13:19.037Z,27.83
2022-12-03T06:15:45.899Z,25.97
2022-12-03T06:18:12.746Z,25.73
2022-12-03T06:20:39.628Z,24.53
2022-12-03T06:23:09.166Z,27.03
2022-12-03T06:25:36.727Z,25.00
2022-12-03T06:28:03.730Z,27.03
2022-12-03T06:30:30.587Z,26.73
2022-12-03T06:32:57.551Z,26.47
2022-12-03T06:35:24.359Z,27.87
2022-12-03T06:37:51.173Z,26.07
2022-12-03T06:40:19.728Z,26.67
2022-12-03T06:42:46.483Z,25.30
2022-12-03T06:45:13.467Z,26.87
2022-12-03T06:47:40.433Z,26.67
2022-12-03T06:50:08.417Z,25.43
2022-12-03T06:52:35.492Z,25.97
2022-12-03T06:55:02.637Z,27.57
2022-12-03T06:57:29.657Z,23.57
2022-12-03T06:59:56.639Z,27.90
2022-12-03T07:02:23.710Z,26.77
2022-12-03T07:04:53.129Z,27.17
2022-12-03T07:07:22.261Z,25.90
2022-12-03T07:09:49.605Z,25.30
2022-12-03T07:12:19.655Z,25.07
2022-12-03T07:14:46.785Z,26.50
2022-12-03T07:17:13.716Z,27.33
2022-12-03T07:19:40.955Z,26.43
2022-12-03T07:22:09.140Z,25.23
2022-12-03T07:24:35.968Z,27.87
2022-12-03T07:27:02.790Z,28.57
2022-12-03T07:29:29.669Z,26.60
2022-12-03T07:31:56.578Z,27.53
2022-12-03T07:34:23.517Z,27.43
2022-12-03T07:36:50.398Z,25.60
2022-12-03T07:39:19.817Z,27.53
2022-12-03T07:41:49.867Z,26.33
2022-12-03T07:44:16.669Z,28.37
2022-12-03T07:46:43.956Z,26.87
2022-12-03T07:49:12.182Z,26.07
2022-12-03T07:51:39.298Z,27.43
2022-12-03T07:54:06.152Z,27.33
2022-12-03T07:56:33.026Z,26.37
2022-12-03T07:59:00.169Z,28.23
2022-12-03T08:01:27.068Z,28.63
2022-12-03T08:03:54.051Z,27.93
2022-12-03T08:06:21.728Z,27.67
2022-12-03T08:08:48.847Z,27.83
2022-12-03T08:11:15.746Z,29.50
2022-12-03T08:13:48.564Z,29.00
2022-12-03T08:16:21.141Z,28.80
2022-12-03T08:18:50.386Z,30.13
2022-12-03T08:21:19.226Z,27.53
2022-12-03T08:23:46.009Z,28.30
2022-12-03T08:26:22.645Z,28.10
2022-12-03T08:28:50.726Z,27.07
2022-12-03T08:31:33.415Z,29.10
2022-12-03T08:34:16.803Z,28.67
2022-12-03T08:36:43.718Z,24.57
2022-12-03T08:39:29.864Z,26.23
2022-12-03T08:42:27.335Z,29.00
2022-12-03T08:44:55.517Z,26.00
2022-12-03T08:47:24.408Z,25.20
2022-12-03T08:49:55.294Z,26.17
2022-12-03T08:52:23.462Z,24.20
2022-12-03T08:54:53.467Z,27.70
2022-12-03T08:57:32.221Z,27.57
2022-12-03T09:00:01.929Z,24.97
2022-12-03T09:02:33.061Z,28.90
2022-12-03T09:05:14.268Z,26.00
2022-12-03T09:07:41.187Z,27.37
2022-12-03T09:10:24.273Z,27.60
2022-12-03T09:13:03.400Z,27.67
2022-12-03T09:15:54.527Z,26.83
2022-12-03T09:18:27.529Z,26.80
2022-12-03T09:21:09.068Z,29.07
2022-12-03T09:24:03.192Z,25.30
2022-12-03T09:26:43.973Z,25.67
2022-12-03T09:29:24.947Z,28.13
2022-12-03T09:32:42.572Z,27.57
2022-12-03T09:35:38.911Z,26.50
2022-12-03T09:38:15.417Z,27.17
2022-12-03T09:40:55.179Z,27.75
2022-12-03T09:44:04.046Z,27.23
2022-12-03T09:46:44.679Z,27.33
2022-12-03T09:52:26.521Z,27.40
2022-12-03T09:55:14.304Z,27.17
2022-12-03T09:58:04.238Z,28.00
2022-12-03T10:00:39.142Z,26.20
2022-12-03T10:03:24.087Z,28.37
2022-12-03T10:09:06.381Z,25.57
2022-12-03T10:12:02.375Z,26.23
2022-12-03T10:14:40.393Z,30.93
2022-12-03T10:17:18.307Z,29.17
2022-12-03T10:19:58.300Z,27.73
2022-12-03T10:22:42.244Z,27.67
2022-12-03T10:25:31.669Z,27.43
2022-12-03T10:28:42.158Z,26.97
2022-12-03T10:34:52.435Z,25.60
2022-12-03T10:37:29.922Z,24.53
2022-12-03T10:40:16.955Z,26.03
2022-12-03T10:43:00.681Z,25.93
2022-12-03T10:45:31.725Z,26.67
2022-12-03T10:48:33.127Z,25.77
2022-12-03T10:51:39.818Z,24.23
2022-12-03T10:54:25.377Z,25.30
2022-12-03T10:56:57.086Z,26.40
2022-12-03T10:59:26.636Z,25.03
2022-12-03T11:01:54.055Z,23.37
2022-12-03T11:04:32.952Z,25.10
2022-12-03T11:07:02.987Z,45.10
2022-12-03T11:09:31.932Z,25.70
2022-12-03T11:12:12.879Z,24.80
2022-12-03T11:14:53.531Z,26.07
2022-12-03T11:17:49.910Z,25.33
2022-12-03T11:20:22.928Z,23.67
2022-12-03T11:22:58.378Z,22.93
2022-12-03T11:25:25.244Z,23.17
2022-12-03T11:28:18.819Z,23.50
2022-12-03T11:30:48.908Z,26.13
2022-12-03T11:33:28.650Z,25.17
2022-12-03T11:36:05.348Z,27.23
2022-12-03T11:38:38.527Z,24.27
2022-12-03T11:41:23.821Z,23.83
2022-12-03T11:43:53.831Z,24.33
2022-12-03T11:46:39.694Z,23.20
2022-12-03T11:49:30.317Z,22.07
2022-12-03T11:51:58.825Z,23.40
2022-12-03T11:54:26.143Z,22.90
2022-12-03T11:56:53.735Z,22.83
2022-12-03T11:59:20.688Z,21.83
2022-12-03T12:01:47.563Z,23.13
2022-12-03T12:04:35.619Z,21.67
2022-12-03T12:07:02.510Z,23.40
2022-12-03T12:09:55.889Z,21.37
2022-12-03T12:12:28.235Z,21.40
2022-12-03T12:14:55.112Z,22.07
2022-12-03T12:17:32.561Z,19.17
2022-12-03T12:20:27.850Z,21.60
2022-12-03T12:22:55.293Z,22.57
2022-12-03T12:25:37.428Z,22.40
2022-12-03T12:28:04.362Z,22.17
2022-12-03T12:30:31.178Z,19.33
2022-12-03T12:33:10.046Z,21.17
2022-12-03T12:35:37.217Z,19.50
2022-12-03T12:38:07.142Z,21.53
2022-12-03T12:40:45.717Z,20.57
2022-12-03T12:43:25.003Z,20.57
2022-12-03T12:45:54.675Z,20.47
2022-12-03T12:48:27.408Z,22.70
2022-12-03T12:51:08.794Z,20.10
2022-12-03T12:53:36.903Z,20.40
2022-12-03T12:56:31.025Z,20.77
2022-12-03T12:59:14.387Z,19.40
2022-12-03T13:01:42.221Z,22.03
2022-12-03T13:04:18.339Z,20.50
2022-12-03T13:06:47.681Z,22.10
2022-12-03T13:09:24.866Z,22.92
2022-12-03T13:11:59.861Z,20.73
2022-12-03T13:14:31.878Z,20.47
2022-12-03T13:17:00.490Z,21.50
2022-12-03T13:19:29.829Z,20.67
2022-12-03T13:22:11.437Z,20.97
2022-12-03T13:24:48.794Z,20.77
2022-12-03T13:27:19.624Z,21.73
2022-12-03T13:29:49.424Z,20.60
2022-12-03T13:32:23.027Z,21.60
2022-12-03T13:34:52.709Z,22.75
2022-12-03T13:37:21.327Z,22.23
2022-12-03T13:39:54.292Z,20.27
2022-12-03T13:42:38.717Z,36.73
2022-12-03T13:45:14.795Z,23.98
2022-12-03T13:47:43.018Z,29.97
2022-12-03T13:50:33.180Z,28.87
2022-12-03T13:53:01.515Z,25.17
2022-12-03T13:55:31.053Z,24.43
2022-12-03T13:57:57.982Z,22.57
2022-12-03T14:00:25.173Z,24.27
2022-12-03T14:02:52.092Z,22.00
2022-12-03T14:05:19.184Z,22.23
2022-12-03T14:07:46.129Z,23.53
2022-12-03T14:10:13.257Z,23.40
2022-12-03T14:12:40.206Z,22.67
2022-12-03T14:15:08.579Z,23.47
2022-12-03T14:17:35.491Z,23.13
2022-12-03T14:20:03.870Z,23.70
2022-12-03T14:22:30.960Z,22.67
2022-12-03T14:24:58.950Z,24.80
2022-12-03T14:27:25.921Z,23.20
2022-12-03T14:29:53.123Z,25.00
2022-12-03T14:32:20.282Z,24.13
2022-12-03T14:34:47.097Z,22.50
2022-12-03T14:37:14.048Z,21.97
2022-12-03T14:39:40.958Z,25.43
2022-12-03T14:42:13.911Z,22.87
2022-12-03T14:44:46.389Z,23.50
2022-12-03T14:47:16.411Z,23.77
2022-12-03T14:49:43.269Z,23.30
2022-12-03T14:52:12.546Z,24.23
2022-12-03T14:54:44.447Z,22.77
2022-12-03T14:57:15.449Z,25.33
2022-12-03T14:59:43.290Z,24.60
2022-12-03T15:02:11.000Z,24.53
2022-12-03T15:04:38.689Z,22.43
2022-12-03T15:07:05.886Z,22.53
2022-12-03T15:09:32.814Z,24.27
2022-12-03T15:12:00.184Z,24.17
2022-12-03T15:14:27.167Z,23.27
2022-12-03T15:16:54.164Z,24.87
2022-12-03T15:19:21.472Z,22.73
2022-12-03T15:21:49.779Z,23.67
2022-12-03T15:24:17.135Z,22.17
2022-12-03T15:26:44.123Z,22.83
2022-12-03T15:29:11.136Z,23.50
2022-12-03T15:31:38.011Z,22.43
2022-12-03T15:34:05.143Z,23.13
2022-12-03T15:36:32.109Z,22.87
2022-12-03T15:39:01.051Z,22.93
2022-12-03T15:41:30.803Z,24.03
2022-12-03T15:43:59.421Z,23.60
2022-12-03T15:46:27.896Z,24.23
2022-12-03T15:48:55.495Z,23.10
2022-12-03T15:51:22.602Z,22.23
2022-12-03T15:53:49.566Z,26.83
2022-12-03T15:56:16.549Z,23.03
2022-12-03T15:58:43.523Z,23.50
2022-12-03T16:01:10.533Z,21.57
2022-12-03T16:03:37.473Z,22.30
2022-12-03T16:06:04.696Z,23.17
2022-12-03T16:08:31.680Z,22.17
2022-12-03T16:10:58.538Z,23.47
2022-12-03T16:13:25.509Z,22.93
2022-12-03T16:15:52.520Z,23.00
2022-12-03T16:18:19.589Z,23.53
2022-12-03T16:20:46.617Z,22.83
2022-12-03T16:23:13.571Z,23.30
2022-12-03T16:25:40.418Z,24.67
2022-12-03T16:28:07.308Z,23.43
2022-12-03T16:30:34.269Z,25.30
2022-12-03T16:33:01.124Z,22.87
2022-12-03T16:35:28.227Z,21.70
2022-12-03T16:37:55.046Z,21.27
2022-12-03T16:40:21.917Z,22.93
2022-12-03T16:42:48.815Z,23.93
2022-12-03T16:45:21.614Z,22.23
2022-12-03T16:47:49.867Z,24.13
2022-12-03T16:50:23.083Z,22.07
2022-12-03T16:52:56.034Z,21.43
2022-12-03T16:55:23.016Z,21.37
2022-12-03T16:57:49.911Z,22.73
2022-12-03T17:00:17.262Z,21.67
2022-12-03T17:02:44.278Z,22.73
2022-12-03T17:05:11.259Z,22.30
2022-12-03T17:07:38.174Z,24.80
2022-12-03T17:10:05.994Z,23.13
2022-12-03T17:12:48.177Z,21.87
2022-12-03T17:15:19.634Z,22.97
2022-12-03T17:17:46.593Z,23.07
2022-12-03T17:20:14.671Z,23.40
2022-12-03T17:22:41.684Z,23.80
2022-12-03T17:25:09.377Z,25.27
2022-12-03T17:27:40.838Z,24.33
2022-12-03T17:30:11.871Z,24.63
2022-12-03T17:32:38.749Z,23.53
2022-12-03T17:35:05.904Z,23.30
2022-12-03T17:37:35.431Z,24.77
2022-12-03T17:40:02.956Z,23.13
2022-12-03T17:42:29.868Z,24.57
2022-12-03T17:44:56.753Z,23.27
2022-12-03T17:47:23.764Z,23.53
2022-12-03T17:49:50.685Z,23.40
2022-12-03T17:52:17.751Z,22.47
2022-12-03T17:55:09.080Z,24.97
2022-12-03T17:57:31.425Z,22.90
2022-12-03T17:59:58.271Z,24.23
2022-12-03T18:02:25.215Z,25.80
2022-12-03T18:04:52.016Z,25.00
2022-12-03T18:07:19.010Z,24.90
2022-12-03T18:09:45.833Z,28.43
2022-12-03T18:12:12.926Z,25.57
2022-12-03T18:14:39.889Z,25.23
2022-12-03T18:17:06.909Z,25.30
2022-12-03T18:19:33.746Z,24.60
2022-12-03T18:22:00.689Z,25.00
2022-12-03T18:24:27.575Z,25.53
2022-12-03T18:26:54.360Z,25.30
2022-12-03T18:29:21.233Z,24.50
2022-12-03T18:31:48.090Z,25.57
2022-12-03T18:34:15.251Z,26.00
2022-12-03T18:36:42.254Z,24.17
2022-12-03T18:39:18.664Z,26.23
2022-12-03T18:41:45.509Z,26.13
2022-12-03T18:44:12.691Z,25.07
2022-12-03T18:46:56.108Z,26.67
2022-12-03T18:49:23.557Z,26.00
2022-12-03T18:51:54.470Z,25.90
2022-12-03T18:54:25.671Z,26.93
2022-12-03T18:56:52.467Z,26.23
2022-12-03T18:59:19.252Z,26.10
2022-12-03T19:01:46.217Z,26.07
2022-12-03T19:04:13.608Z,28.27
2022-12-03T19:06:40.451Z,24.03
2022-12-03T19:09:07.442Z,27.60
2022-12-03T19:11:34.297Z,25.53
2022-12-03T19:14:02.913Z,27.77
2022-12-03T19:16:30.371Z,26.63
2022-12-03T19:18:58.093Z,28.20
2022-12-03T19:21:28.298Z,26.33
2022-12-03T19:24:23.308Z,28.63
2022-12-03T19:26:44.523Z,27.50
2022-12-03T19:29:12.086Z,26.87
2022-12-03T19:31:39.579Z,26.97
2022-12-03T19:34:06.506Z,27.47
2022-12-03T19:36:33.480Z,26.00
2022-12-03T19:39:00.604Z,27.43
2022-12-03T19:41:30.556Z,26.90
2022-12-03T19:43:58.049Z,28.03
2022-12-03T19:46:28.685Z,28.13
2022-12-03T19:48:55.578Z,27.03
2022-12-03T19:51:37.499Z,27.20
2022-12-03T19:54:06.006Z,30.83
2022-12-03T19:56:33.538Z,28.00
2022-12-03T19:59:00.726Z,28.40
2022-12-03T20:01:30.762Z,28.43
2022-12-03T20:03:59.042Z,27.83
2022-12-03T20:06:28.439Z,31.13
2022-12-03T20:09:00.408Z,31.13
2022-12-03T20:11:30.559Z,30.00
2022-12-03T20:13:59.447Z,28.77
2022-12-03T20:16:27.789Z,31.33
2022-12-03T20:18:59.873Z,30.67
2022-12-03T20:21:29.371Z,28.37
2022-12-03T20:23:56.204Z,32.40
2022-12-03T20:26:23.875Z,30.17
2022-12-03T20:28:53.497Z,28.90
2022-12-03T20:31:22.538Z,28.30
2022-12-03T20:33:51.655Z,29.23
2022-12-03T20:36:20.700Z,29.97
2022-12-03T20:38:47.600Z,30.30
2022-12-03T20:41:18.658Z,29.47
2022-12-03T20:43:45.836Z,30.40
2022-12-03T20:46:14.141Z,29.87
2022-12-03T20:48:42.524Z,29.67
2022-12-03T20:51:12.228Z,30.47
2022-12-03T20:53:39.391Z,30.07
2022-12-03T20:56:06.832Z,28.83
2022-12-03T20:58:34.221Z,30.40
2022-12-03T21:01:15.674Z,29.63
2022-12-03T21:03:43.849Z,31.57
2022-12-03T21:06:11.661Z,31.30
2022-12-03T21:08:42.030Z,29.63
2022-12-03T21:11:14.740Z,30.40
2022-12-03T21:13:43.817Z,31.40
2022-12-03T21:16:13.628Z,28.37
2022-12-03T21:18:41.105Z,29.83
2022-12-03T21:21:08.763Z,31.07
2022-12-03T21:23:35.850Z,31.03
2022-12-03T21:26:04.632Z,28.93
2022-12-03T21:28:35.123Z,31.67
2022-12-03T21:31:04.085Z,35.17
2022-12-03T21:33:32.035Z,30.53
2022-12-03T21:35:59.737Z,30.83
2022-12-03T21:38:29.713Z,30.87
2022-12-03T21:40:57.254Z,28.57
2022-12-03T21:43:24.812Z,31.60
2022-12-03T21:45:54.458Z,31.80
2022-12-03T21:48:21.641Z,31.27
2022-12-03T21:51:03.522Z,31.53
2022-12-03T21:53:32.192Z,31.03
2022-12-03T21:55:59.529Z,32.33
2022-12-03T21:58:26.652Z,29.07
2022-12-03T22:00:55.912Z,30.17
2022-12-03T22:03:22.775Z,30.43
2022-12-03T22:05:52.015Z,31.83
2022-12-03T22:08:24.728Z,30.77
2022-12-03T22:10:51.574Z,28.57
2022-12-03T22:13:18.359Z,32.07
2022-12-03T22:15:45.502Z,30.43
2022-12-03T22:18:12.487Z,30.17
2022-12-03T22:20:41.931Z,31.33
2022-12-03T22:23:08.747Z,30.00
2022-12-03T22:25:36.968Z,32.57
2022-12-03T22:28:04.967Z,31.07
2022-12-03T22:30:34.925Z,31.83
2022-12-03T22:33:01.849Z,31.73
2022-12-03T22:35:30.898Z,29.87
2022-12-03T22:37:57.827Z,31.20
2022-12-03T22:40:24.814Z,31.40
2022-12-03T22:42:51.595Z,32.40
2022-12-03T22:45:18.481Z,27.93
2022-12-03T22:47:45.489Z,31.03
2022-12-03T22:50:12.294Z,32.67
2022-12-03T22:52:39.197Z,30.73
2022-12-03T22:55:08.785Z,31.03
2022-12-03T22:57:35.632Z,34.53
2022-12-03T23:00:02.531Z,30.33
2022-12-03T23:02:29.485Z,30.83
2022-12-03T23:04:59.556Z,32.20
2022-12-03T23:07:26.427Z,29.33
2022-12-03T23:09:56.589Z,30.57
2022-12-03T23:12:23.703Z,31.47
2022-12-03T23:14:53.875Z,32.30
2022-12-03T23:17:20.768Z,32.40
2022-12-03T23:19:47.549Z,30.70
2022-12-03T23:22:14.776Z,30.50
2022-12-03T23:24:41.786Z,31.03
2022-12-03T23:27:10.976Z,31.90
2022-12-03T23:29:37.849Z,32.20
2022-12-03T23:32:11.761Z,34.00
2022-12-03T23:34:38.696Z,35.13
2022-12-03T23:37:05.600Z,32.63
2022-12-03T23:39:32.545Z,32.33
2022-12-03T23:41:59.361Z,32.43
2022-12-03T23:44:27.670Z,34.43
2022-12-03T23:46:55.095Z,32.57
2022-12-03T23:49:22.807Z,32.60
2022-12-03T23:51:56.419Z,31.10
2022-12-03T23:54:23.246Z,33.50
2022-12-03T23:56:50.030Z,33.67
2022-12-03T23:59:16.824Z,32.37
